sensor_id;sensor_type;location;lat;lon;timestamp;temperature;humidity
22623;DHT22;11478;51.094;7.030;2022-08-01T00:00:08;19.70;99.90
22623;DHT22;11478;51.094;7.030;2022-08-01T00:02:40;19.70;99.90
22623;DHT22;11478;51.094;7.030;2022-08-01T00:05:08;19.60;99.90
22623;DHT22;11478;51.094;7.030;2022-08-01T00:07:39;19.60;99.90
22623;DHT22;11478;51.094;7.030;2022-08-01T00:10:10;19.60;99.90
22623;DHT22;11478;51.094;7.030;2022-08-01T00:12:37;19.50;99.90
22623;DHT22;11478;51.094;7.030;2022-08-01T00:15:06;19.50;99.90
22623;DHT22;11478;51.094;7.030;2022-08-01T00:17:33;19.50;99.90
22623;DHT22;11478;51.094;7.030;2022-08-01T00:19:59;19.50;99.90
22623;DHT22;11478;51.094;7.030;2022-08-01T00:22:30;19.50;99.90
22623;DHT22;11478;51.094;7.030;2022-08-01T00:24:57;19.50;99.90
22623;DHT22;11478;51.094;7.030;2022-08-01T00:27:24;19.50;99.90
22623;DHT22;11478;51.094;7.030;2022-08-01T00:29:50;19.50;99.90
22623;DHT22;11478;51.094;7.030;2022-08-01T00:32:21;19.40;99.90
22623;DHT22;11478;51.094;7.030;2022-08-01T00:34:48;19.40;99.90
22623;DHT22;11478;51.094;7.030;2022-08-01T00:37:40;19.40;99.90
22623;DHT22;11478;51.094;7.030;2022-08-01T00:40:08;19.30;99.90
22623;DHT22;11478;51.094;7.030;2022-08-01T00:42:36;19.30;99.90
22623;DHT22;11478;51.094;7.030;2022-08-01T00:45:02;19.30;99.90
22623;DHT22;11478;51.094;7.030;2022-08-01T00:47:30;19.30;99.90
22623;DHT22;11478;51.094;7.030;2022-08-01T00:49:57;19.30;99.90
22623;DHT22;11478;51.094;7.030;2022-08-01T00:52:26;19.30;99.90
22623;DHT22;11478;51.094;7.030;2022-08-01T00:54:52;19.30;99.90
22623;DHT22;11478;51.094;7.030;2022-08-01T00:57:20;19.30;99.90
22623;DHT22;11478;51.094;7.030;2022-08-01T00:59:47;19.30;99.90
22623;DHT22;11478;51.094;7.030;2022-08-01T01:02:16;19.20;99.90
22623;DHT22;11478;51.094;7.030;2022-08-01T01:04:43;19.20;99.90
22623;DHT22;11478;51.094;7.030;2022-08-01T01:10:28;19.20;99.90
22623;DHT22;11478;51.094;7.030;2022-08-01T01:16:02;19.30;99.90
22623;DHT22;11478;51.094;7.030;2022-08-01T01:18:36;19.20;99.90
22623;DHT22;11478;51.094;7.030;2022-08-01T01:31:26;19.20;99.90
22623;DHT22;11478;51.094;7.030;2022-08-01T01:33:57;19.20;99.90
22623;DHT22;11478;51.094;7.030;2022-08-01T01:36:26;19.20;99.90
22623;DHT22;11478;51.094;7.030;2022-08-01T01:39:03;19.20;99.90
22623;DHT22;11478;51.094;7.030;2022-08-01T01:41:31;19.20;99.90
22623;DHT22;11478;51.094;7.030;2022-08-01T01:43:58;19.20;99.90
22623;DHT22;11478;51.094;7.030;2022-08-01T01:46:28;19.20;99.90
22623;DHT22;11478;51.094;7.030;2022-08-01T01:49:02;19.20;99.90
22623;DHT22;11478;51.094;7.030;2022-08-01T01:51:29;19.20;99.90
22623;DHT22;11478;51.094;7.030;2022-08-01T01:53:56;19.20;99.90
22623;DHT22;11478;51.094;7.030;2022-08-01T01:56:24;19.20;99.90
22623;DHT22;11478;51.094;7.030;2022-08-01T01:59:04;19.20;99.90
22623;DHT22;11478;51.094;7.030;2022-08-01T02:01:32;19.20;99.90
22623;DHT22;11478;51.094;7.030;2022-08-01T02:04:01;19.20;99.90
22623;DHT22;11478;51.094;7.030;2022-08-01T02:06:34;19.20;99.90
22623;DHT22;11478;51.094;7.030;2022-08-01T02:09:01;19.20;99.90
22623;DHT22;11478;51.094;7.030;2022-08-01T02:11:27;19.20;99.90
22623;DHT22;11478;51.094;7.030;2022-08-01T02:13:59;19.20;99.90
22623;DHT22;11478;51.094;7.030;2022-08-01T02:16:29;19.20;99.90
22623;DHT22;11478;51.094;7.030;2022-08-01T02:18:58;19.20;99.90
22623;DHT22;11478;51.094;7.030;2022-08-01T02:21:49;19.20;99.90
22623;DHT22;11478;51.094;7.030;2022-08-01T02:24:29;19.20;99.90
22623;DHT22;11478;51.094;7.030;2022-08-01T02:27:09;19.20;99.90
22623;DHT22;11478;51.094;7.030;2022-08-01T02:29:50;19.20;99.90
22623;DHT22;11478;51.094;7.030;2022-08-01T02:32:35;19.20;99.90
22623;DHT22;11478;51.094;7.030;2022-08-01T02:35:02;19.20;99.90
22623;DHT22;11478;51.094;7.030;2022-08-01T02:37:38;19.20;99.90
22623;DHT22;11478;51.094;7.030;2022-08-01T02:40:05;19.20;99.90
22623;DHT22;11478;51.094;7.030;2022-08-01T02:42:35;19.20;99.90
22623;DHT22;11478;51.094;7.030;2022-08-01T02:45:05;19.10;99.90
22623;DHT22;11478;51.094;7.030;2022-08-01T02:47:38;19.20;99.90
22623;DHT22;11478;51.094;7.030;2022-08-01T02:50:06;19.10;99.90
22623;DHT22;11478;51.094;7.030;2022-08-01T02:52:39;19.10;99.90
22623;DHT22;11478;51.094;7.030;2022-08-01T02:55:06;19.10;99.90
22623;DHT22;11478;51.094;7.030;2022-08-01T02:57:36;19.10;99.90
22623;DHT22;11478;51.094;7.030;2022-08-01T03:00:04;19.10;99.90
22623;DHT22;11478;51.094;7.030;2022-08-01T03:02:32;19.10;99.90
22623;DHT22;11478;51.094;7.030;2022-08-01T03:05:01;19.10;99.90
22623;DHT22;11478;51.094;7.030;2022-08-01T03:07:35;19.10;99.90
22623;DHT22;11478;51.094;7.030;2022-08-01T03:10:03;19.10;99.90
22623;DHT22;11478;51.094;7.030;2022-08-01T03:12:32;19.10;99.90
22623;DHT22;11478;51.094;7.030;2022-08-01T03:15:01;19.10;99.90
22623;DHT22;11478;51.094;7.030;2022-08-01T03:17:29;19.10;99.90
22623;DHT22;11478;51.094;7.030;2022-08-01T03:20:01;19.10;99.90
22623;DHT22;11478;51.094;7.030;2022-08-01T03:22:29;19.10;99.90
22623;DHT22;11478;51.094;7.030;2022-08-01T03:24:57;19.10;99.90
22623;DHT22;11478;51.094;7.030;2022-08-01T03:27:26;19.10;99.90
22623;DHT22;11478;51.094;7.030;2022-08-01T03:29:55;19.10;99.90
22623;DHT22;11478;51.094;7.030;2022-08-01T03:32:22;19.10;99.90
22623;DHT22;11478;51.094;7.030;2022-08-01T03:34:49;19.10;99.90
22623;DHT22;11478;51.094;7.030;2022-08-01T03:37:23;19.10;99.90
22623;DHT22;11478;51.094;7.030;2022-08-01T03:40:00;19.10;99.90
22623;DHT22;11478;51.094;7.030;2022-08-01T03:42:39;19.10;99.90
22623;DHT22;11478;51.094;7.030;2022-08-01T03:45:10;19.20;99.90
22623;DHT22;11478;51.094;7.030;2022-08-01T03:47:41;19.10;99.90
22623;DHT22;11478;51.094;7.030;2022-08-01T03:50:11;19.10;99.90
22623;DHT22;11478;51.094;7.030;2022-08-01T03:52:43;19.10;99.90
22623;DHT22;11478;51.094;7.030;2022-08-01T03:55:13;19.10;99.90
22623;DHT22;11478;51.094;7.030;2022-08-01T03:57:45;19.10;99.90
22623;DHT22;11478;51.094;7.030;2022-08-01T04:00:12;19.10;99.90
22623;DHT22;11478;51.094;7.030;2022-08-01T04:02:51;19.10;99.90
22623;DHT22;11478;51.094;7.030;2022-08-01T04:05:18;19.10;99.90
22623;DHT22;11478;51.094;7.030;2022-08-01T04:08:15;19.10;99.90
22623;DHT22;11478;51.094;7.030;2022-08-01T04:10:43;19.10;99.90
22623;DHT22;11478;51.094;7.030;2022-08-01T04:13:18;19.10;99.90
22623;DHT22;11478;51.094;7.030;2022-08-01T04:15:48;19.10;99.90
22623;DHT22;11478;51.094;7.030;2022-08-01T04:18:15;19.10;99.90
22623;DHT22;11478;51.094;7.030;2022-08-01T04:20:41;19.10;99.90
22623;DHT22;11478;51.094;7.030;2022-08-01T04:23:08;19.10;99.90
22623;DHT22;11478;51.094;7.030;2022-08-01T04:25:37;19.10;99.90
22623;DHT22;11478;51.094;7.030;2022-08-01T04:28:05;19.10;99.90
22623;DHT22;11478;51.094;7.030;2022-08-01T04:30:38;19.10;99.90
22623;DHT22;11478;51.094;7.030;2022-08-01T04:33:16;19.10;99.90
22623;DHT22;11478;51.094;7.030;2022-08-01T04:35:46;19.10;99.90
22623;DHT22;11478;51.094;7.030;2022-08-01T04:38:17;19.20;99.90
22623;DHT22;11478;51.094;7.030;2022-08-01T04:40:44;19.10;99.90
22623;DHT22;11478;51.094;7.030;2022-08-01T04:43:12;19.10;99.90
22623;DHT22;11478;51.094;7.030;2022-08-01T04:45:39;19.10;99.90
22623;DHT22;11478;51.094;7.030;2022-08-01T04:48:06;19.20;99.90
22623;DHT22;11478;51.094;7.030;2022-08-01T04:50:35;19.20;99.90
22623;DHT22;11478;51.094;7.030;2022-08-01T04:53:04;19.20;99.90
22623;DHT22;11478;51.094;7.030;2022-08-01T04:55:32;19.20;99.90
22623;DHT22;11478;51.094;7.030;2022-08-01T04:57:58;19.20;99.90
22623;DHT22;11478;51.094;7.030;2022-08-01T05:00:25;19.20;99.90
22623;DHT22;11478;51.094;7.030;2022-08-01T05:02:55;19.20;99.90
22623;DHT22;11478;51.094;7.030;2022-08-01T05:05:21;19.20;99.90
22623;DHT22;11478;51.094;7.030;2022-08-01T05:07:47;19.20;99.90
22623;DHT22;11478;51.094;7.030;2022-08-01T05:10:12;19.20;99.90
22623;DHT22;11478;51.094;7.030;2022-08-01T05:12:40;19.20;99.90
22623;DHT22;11478;51.094;7.030;2022-08-01T05:15:07;19.20;99.90
22623;DHT22;11478;51.094;7.030;2022-08-01T05:17:35;19.20;99.90
22623;DHT22;11478;51.094;7.030;2022-08-01T05:20:01;19.20;99.90
22623;DHT22;11478;51.094;7.030;2022-08-01T05:22:40;19.20;99.90
22623;DHT22;11478;51.094;7.030;2022-08-01T05:25:06;19.30;99.90
22623;DHT22;11478;51.094;7.030;2022-08-01T05:27:44;19.30;99.90
22623;DHT22;11478;51.094;7.030;2022-08-01T05:30:10;19.30;99.90
22623;DHT22;11478;51.094;7.030;2022-08-01T05:32:37;19.30;99.90
22623;DHT22;11478;51.094;7.030;2022-08-01T05:35:03;19.30;99.90
22623;DHT22;11478;51.094;7.030;2022-08-01T05:37:30;19.30;99.90
22623;DHT22;11478;51.094;7.030;2022-08-01T05:39:56;19.30;99.90
22623;DHT22;11478;51.094;7.030;2022-08-01T05:42:23;19.40;99.90
22623;DHT22;11478;51.094;7.030;2022-08-01T05:44:52;19.40;99.90
22623;DHT22;11478;51.094;7.030;2022-08-01T05:47:18;19.30;99.90
22623;DHT22;11478;51.094;7.030;2022-08-01T05:49:45;19.40;99.90
22623;DHT22;11478;51.094;7.030;2022-08-01T05:52:12;19.40;99.90
22623;DHT22;11478;51.094;7.030;2022-08-01T05:54:40;19.40;99.90
22623;DHT22;11478;51.094;7.030;2022-08-01T05:57:07;19.40;99.90
22623;DHT22;11478;51.094;7.030;2022-08-01T05:59:34;19.40;99.90
22623;DHT22;11478;51.094;7.030;2022-08-01T06:02:02;19.40;99.90
22623;DHT22;11478;51.094;7.030;2022-08-01T06:04:29;19.40;99.90
22623;DHT22;11478;51.094;7.030;2022-08-01T06:06:55;19.40;99.90
22623;DHT22;11478;51.094;7.030;2022-08-01T06:09:26;19.40;99.90
22623;DHT22;11478;51.094;7.030;2022-08-01T06:11:53;19.50;99.90
22623;DHT22;11478;51.094;7.030;2022-08-01T06:14:19;19.50;99.90
22623;DHT22;11478;51.094;7.030;2022-08-01T06:16:45;19.50;99.90
22623;DHT22;11478;51.094;7.030;2022-08-01T06:19:14;19.60;99.90
22623;DHT22;11478;51.094;7.030;2022-08-01T06:21:40;19.60;99.90
22623;DHT22;11478;51.094;7.030;2022-08-01T06:24:06;19.70;99.90
22623;DHT22;11478;51.094;7.030;2022-08-01T06:26:33;19.70;99.90
22623;DHT22;11478;51.094;7.030;2022-08-01T06:29:01;19.70;99.90
22623;DHT22;11478;51.094;7.030;2022-08-01T06:31:27;19.80;99.90
22623;DHT22;11478;51.094;7.030;2022-08-01T06:33:54;19.80;99.90
22623;DHT22;11478;51.094;7.030;2022-08-01T06:36:22;19.80;99.90
22623;DHT22;11478;51.094;7.030;2022-08-01T06:38:49;19.80;99.90
22623;DHT22;11478;51.094;7.030;2022-08-01T06:41:15;19.80;99.90
22623;DHT22;11478;51.094;7.030;2022-08-01T06:43:41;19.80;99.90
22623;DHT22;11478;51.094;7.030;2022-08-01T06:46:09;19.80;99.90
22623;DHT22;11478;51.094;7.030;2022-08-01T06:48:56;19.80;99.90
22623;DHT22;11478;51.094;7.030;2022-08-01T06:51:25;19.80;99.90
22623;DHT22;11478;51.094;7.030;2022-08-01T06:53:51;19.90;99.90
22623;DHT22;11478;51.094;7.030;2022-08-01T06:56:20;19.90;99.90
22623;DHT22;11478;51.094;7.030;2022-08-01T06:58:47;19.90;99.90
22623;DHT22;11478;51.094;7.030;2022-08-01T07:01:15;19.90;99.90
22623;DHT22;11478;51.094;7.030;2022-08-01T07:03:44;20.00;99.90
22623;DHT22;11478;51.094;7.030;2022-08-01T07:06:10;20.00;99.90
22623;DHT22;11478;51.094;7.030;2022-08-01T07:08:38;20.10;99.90
22623;DHT22;11478;51.094;7.030;2022-08-01T07:11:05;20.10;99.90
22623;DHT22;11478;51.094;7.030;2022-08-01T07:17:22;20.20;99.90
22623;DHT22;11478;51.094;7.030;2022-08-01T07:19:49;20.20;99.90
22623;DHT22;11478;51.094;7.030;2022-08-01T07:22:21;20.30;99.90
22623;DHT22;11478;51.094;7.030;2022-08-01T07:24:49;20.20;99.90
22623;DHT22;11478;51.094;7.030;2022-08-01T07:30:40;20.30;99.90
22623;DHT22;11478;51.094;7.030;2022-08-01T07:33:12;20.30;99.90
22623;DHT22;11478;51.094;7.030;2022-08-01T07:38:58;20.30;99.90
22623;DHT22;11478;51.094;7.030;2022-08-01T07:44:32;20.50;99.90
22623;DHT22;11478;51.094;7.030;2022-08-01T07:47:26;20.70;99.90
22623;DHT22;11478;51.094;7.030;2022-08-01T07:49:59;20.90;99.90
22623;DHT22;11478;51.094;7.030;2022-08-01T07:52:32;21.00;99.90
22623;DHT22;11478;51.094;7.030;2022-08-01T07:55:17;21.10;99.90
22623;DHT22;11478;51.094;7.030;2022-08-01T07:57:44;21.10;99.90
22623;DHT22;11478;51.094;7.030;2022-08-01T08:00:44;21.10;99.90
22623;DHT22;11478;51.094;7.030;2022-08-01T08:06:30;21.00;99.90
22623;DHT22;11478;51.094;7.030;2022-08-01T08:09:05;21.00;99.90
22623;DHT22;11478;51.094;7.030;2022-08-01T08:11:33;21.00;99.90
22623;DHT22;11478;51.094;7.030;2022-08-01T08:20:31;21.00;99.90
22623;DHT22;11478;51.094;7.030;2022-08-01T08:23:02;21.00;99.90
22623;DHT22;11478;51.094;7.030;2022-08-01T08:26:07;21.10;99.90
22623;DHT22;11478;51.094;7.030;2022-08-01T08:28:33;21.10;99.90
22623;DHT22;11478;51.094;7.030;2022-08-01T08:31:03;21.20;99.90
22623;DHT22;11478;51.094;7.030;2022-08-01T08:33:30;21.30;99.90
22623;DHT22;11478;51.094;7.030;2022-08-01T08:36:13;21.40;99.90
22623;DHT22;11478;51.094;7.030;2022-08-01T08:38:39;21.40;99.90
22623;DHT22;11478;51.094;7.030;2022-08-01T08:44:03;21.50;99.90
22623;DHT22;11478;51.094;7.030;2022-08-01T08:46:41;21.50;99.90
22623;DHT22;11478;51.094;7.030;2022-08-01T08:49:08;21.60;99.90
22623;DHT22;11478;51.094;7.030;2022-08-01T08:52:04;21.70;99.90
22623;DHT22;11478;51.094;7.030;2022-08-01T08:54:31;22.00;99.90
22623;DHT22;11478;51.094;7.030;2022-08-01T08:57:01;22.10;99.90
22623;DHT22;11478;51.094;7.030;2022-08-01T08:59:27;22.10;99.90
22623;DHT22;11478;51.094;7.030;2022-08-01T09:01:55;22.00;99.90
22623;DHT22;11478;51.094;7.030;2022-08-01T09:04:36;22.00;99.90
22623;DHT22;11478;51.094;7.030;2022-08-01T09:07:05;22.10;99.90
22623;DHT22;11478;51.094;7.030;2022-08-01T09:09:37;22.20;99.90
22623;DHT22;11478;51.094;7.030;2022-08-01T09:12:06;22.20;99.90
22623;DHT22;11478;51.094;7.030;2022-08-01T09:14:49;22.20;99.90
22623;DHT22;11478;51.094;7.030;2022-08-01T09:17:19;22.20;99.90
22623;DHT22;11478;51.094;7.030;2022-08-01T09:19:57;22.20;99.90
22623;DHT22;11478;51.094;7.030;2022-08-01T09:22:25;22.10;99.90
22623;DHT22;11478;51.094;7.030;2022-08-01T09:25:09;22.00;99.90
22623;DHT22;11478;51.094;7.030;2022-08-01T09:27:38;21.90;99.90
22623;DHT22;11478;51.094;7.030;2022-08-01T09:30:18;21.90;99.90
22623;DHT22;11478;51.094;7.030;2022-08-01T09:32:54;21.80;99.90
22623;DHT22;11478;51.094;7.030;2022-08-01T09:35:34;21.80;99.90
22623;DHT22;11478;51.094;7.030;2022-08-01T09:38:19;21.80;99.90
22623;DHT22;11478;51.094;7.030;2022-08-01T09:40:59;21.80;99.90
22623;DHT22;11478;51.094;7.030;2022-08-01T09:43:38;21.90;99.90
22623;DHT22;11478;51.094;7.030;2022-08-01T09:46:09;22.00;99.90
22623;DHT22;11478;51.094;7.030;2022-08-01T09:48:54;22.00;99.90
22623;DHT22;11478;51.094;7.030;2022-08-01T09:54:37;22.00;99.90
22623;DHT22;11478;51.094;7.030;2022-08-01T09:57:32;22.00;99.90
22623;DHT22;11478;51.094;7.030;2022-08-01T10:00:00;22.00;99.90
22623;DHT22;11478;51.094;7.030;2022-08-01T10:02:55;22.10;99.90
22623;DHT22;11478;51.094;7.030;2022-08-01T10:05:34;22.20;99.90
22623;DHT22;11478;51.094;7.030;2022-08-01T10:08:07;22.20;99.90
22623;DHT22;11478;51.094;7.030;2022-08-01T10:10:33;22.20;99.90
22623;DHT22;11478;51.094;7.030;2022-08-01T10:13:18;22.30;99.90
22623;DHT22;11478;51.094;7.030;2022-08-01T10:15:45;22.30;99.90
22623;DHT22;11478;51.094;7.030;2022-08-01T10:18:19;22.30;99.90
22623;DHT22;11478;51.094;7.030;2022-08-01T10:20:46;22.30;99.90
22623;DHT22;11478;51.094;7.030;2022-08-01T10:23:27;22.40;99.90
22623;DHT22;11478;51.094;7.030;2022-08-01T10:26:05;22.50;99.90
22623;DHT22;11478;51.094;7.030;2022-08-01T10:28:36;22.60;99.90
22623;DHT22;11478;51.094;7.030;2022-08-01T10:31:02;22.50;99.90
22623;DHT22;11478;51.094;7.030;2022-08-01T10:33:34;22.50;99.90
22623;DHT22;11478;51.094;7.030;2022-08-01T10:36:02;22.50;99.90
22623;DHT22;11478;51.094;7.030;2022-08-01T10:38:33;22.50;99.90
22623;DHT22;11478;51.094;7.030;2022-08-01T10:40:59;22.50;99.90
22623;DHT22;11478;51.094;7.030;2022-08-01T10:43:31;22.50;99.90
22623;DHT22;11478;51.094;7.030;2022-08-01T10:45:58;22.50;99.90
22623;DHT22;11478;51.094;7.030;2022-08-01T10:51:51;22.60;99.90
22623;DHT22;11478;51.094;7.030;2022-08-01T10:54:17;22.70;99.90
22623;DHT22;11478;51.094;7.030;2022-08-01T10:56:51;22.80;99.90
22623;DHT22;11478;51.094;7.030;2022-08-01T11:05:28;23.30;99.90
22623;DHT22;11478;51.094;7.030;2022-08-01T11:07:58;23.50;99.90
22623;DHT22;11478;51.094;7.030;2022-08-01T11:13:00;23.60;99.90
22623;DHT22;11478;51.094;7.030;2022-08-01T11:15:32;23.60;99.90
22623;DHT22;11478;51.094;7.030;2022-08-01T11:18:00;23.50;99.90
22623;DHT22;11478;51.094;7.030;2022-08-01T11:20:34;23.40;99.90
22623;DHT22;11478;51.094;7.030;2022-08-01T11:28:17;23.40;99.90
22623;DHT22;11478;51.094;7.030;2022-08-01T11:41:30;23.40;99.90
22623;DHT22;11478;51.094;7.030;2022-08-01T11:47:56;23.40;99.90
22623;DHT22;11478;51.094;7.030;2022-08-01T11:50:33;23.30;99.90
22623;DHT22;11478;51.094;7.030;2022-08-01T11:53:09;23.20;99.90
22623;DHT22;11478;51.094;7.030;2022-08-01T11:55:35;23.20;99.90
22623;DHT22;11478;51.094;7.030;2022-08-01T11:58:13;23.30;99.90
22623;DHT22;11478;51.094;7.030;2022-08-01T12:00:39;23.50;99.90
22623;DHT22;11478;51.094;7.030;2022-08-01T12:03:13;23.70;99.90
22623;DHT22;11478;51.094;7.030;2022-08-01T12:05:39;23.90;99.90
22623;DHT22;11478;51.094;7.030;2022-08-01T12:08:11;24.10;99.90
22623;DHT22;11478;51.094;7.030;2022-08-01T12:10:39;24.20;99.90
22623;DHT22;11478;51.094;7.030;2022-08-01T12:13:06;24.30;99.90
22623;DHT22;11478;51.094;7.030;2022-08-01T12:15:35;24.40;99.90
22623;DHT22;11478;51.094;7.030;2022-08-01T12:18:11;24.40;99.90
22623;DHT22;11478;51.094;7.030;2022-08-01T12:20:41;24.40;99.90
22623;DHT22;11478;51.094;7.030;2022-08-01T12:23:12;24.40;99.90
22623;DHT22;11478;51.094;7.030;2022-08-01T12:25:39;24.20;99.90
22623;DHT22;11478;51.094;7.030;2022-08-01T12:28:19;24.00;99.90
22623;DHT22;11478;51.094;7.030;2022-08-01T12:30:50;23.90;99.90
22623;DHT22;11478;51.094;7.030;2022-08-01T12:33:30;23.90;99.90
22623;DHT22;11478;51.094;7.030;2022-08-01T12:35:56;24.00;99.90
22623;DHT22;11478;51.094;7.030;2022-08-01T12:41:37;24.20;99.90
22623;DHT22;11478;51.094;7.030;2022-08-01T12:44:13;24.10;99.90
22623;DHT22;11478;51.094;7.030;2022-08-01T12:46:41;24.00;99.90
22623;DHT22;11478;51.094;7.030;2022-08-01T12:49:08;24.00;99.90
22623;DHT22;11478;51.094;7.030;2022-08-01T12:51:35;23.90;99.90
22623;DHT22;11478;51.094;7.030;2022-08-01T12:54:19;23.90;99.90
22623;DHT22;11478;51.094;7.030;2022-08-01T12:56:45;23.90;99.90
22623;DHT22;11478;51.094;7.030;2022-08-01T12:59:27;24.00;99.90
22623;DHT22;11478;51.094;7.030;2022-08-01T13:01:54;23.90;99.90
22623;DHT22;11478;51.094;7.030;2022-08-01T13:04:30;24.00;99.90
22623;DHT22;11478;51.094;7.030;2022-08-01T13:06:56;24.00;99.90
22623;DHT22;11478;51.094;7.030;2022-08-01T13:09:23;24.10;99.90
22623;DHT22;11478;51.094;7.030;2022-08-01T13:11:50;24.10;99.90
22623;DHT22;11478;51.094;7.030;2022-08-01T13:17:35;23.90;99.90
22623;DHT22;11478;51.094;7.030;2022-08-01T13:20:29;23.90;99.90
22623;DHT22;11478;51.094;7.030;2022-08-01T13:22:55;23.80;99.90
22623;DHT22;11478;51.094;7.030;2022-08-01T13:25:52;23.80;99.90
22623;DHT22;11478;51.094;7.030;2022-08-01T13:31:35;23.80;99.90
22623;DHT22;11478;51.094;7.030;2022-08-01T13:34:01;23.70;99.90
22623;DHT22;11478;51.094;7.030;2022-08-01T13:36:29;23.80;99.90
22623;DHT22;11478;51.094;7.030;2022-08-01T13:38:59;23.80;99.90
22623;DHT22;11478;51.094;7.030;2022-08-01T13:47:06;24.20;99.90
22623;DHT22;11478;51.094;7.030;2022-08-01T13:49:32;24.30;99.90
22623;DHT22;11478;51.094;7.030;2022-08-01T13:52:02;24.40;99.90
22623;DHT22;11478;51.094;7.030;2022-08-01T13:54:31;24.40;99.90
22623;DHT22;11478;51.094;7.030;2022-08-01T13:57:16;24.50;99.90
22623;DHT22;11478;51.094;7.030;2022-08-01T13:59:42;24.60;99.90
22623;DHT22;11478;51.094;7.030;2022-08-01T14:02:27;24.60;99.90
22623;DHT22;11478;51.094;7.030;2022-08-01T14:04:54;24.60;99.90
22623;DHT22;11478;51.094;7.030;2022-08-01T14:10:55;24.50;99.90
22623;DHT22;11478;51.094;7.030;2022-08-01T14:26:31;24.20;99.90
22623;DHT22;11478;51.094;7.030;2022-08-01T14:28:57;24.20;99.90
22623;DHT22;11478;51.094;7.030;2022-08-01T14:31:31;24.20;99.90
22623;DHT22;11478;51.094;7.030;2022-08-01T14:33:57;24.10;99.90
22623;DHT22;11478;51.094;7.030;2022-08-01T14:39:37;24.00;99.90
22623;DHT22;11478;51.094;7.030;2022-08-01T14:42:37;24.00;99.90
22623;DHT22;11478;51.094;7.030;2022-08-01T14:45:04;24.00;99.90
22623;DHT22;11478;51.094;7.030;2022-08-01T14:47:39;24.00;99.90
22623;DHT22;11478;51.094;7.030;2022-08-01T14:55:24;23.90;99.90
22623;DHT22;11478;51.094;7.030;2022-08-01T14:57:52;24.00;99.90
22623;DHT22;11478;51.094;7.030;2022-08-01T15:00:25;24.00;99.90
22623;DHT22;11478;51.094;7.030;2022-08-01T15:02:51;24.00;99.90
22623;DHT22;11478;51.094;7.030;2022-08-01T15:05:53;24.00;99.90
22623;DHT22;11478;51.094;7.030;2022-08-01T15:08:19;24.00;99.90
22623;DHT22;11478;51.094;7.030;2022-08-01T15:14:17;24.00;99.90
22623;DHT22;11478;51.094;7.030;2022-08-01T15:17:01;24.00;99.90
22623;DHT22;11478;51.094;7.030;2022-08-01T15:19:52;24.00;99.90
22623;DHT22;11478;51.094;7.030;2022-08-01T15:22:20;23.90;99.90
22623;DHT22;11478;51.094;7.030;2022-08-01T15:24:51;23.90;99.90
22623;DHT22;11478;51.094;7.030;2022-08-01T15:57:06;24.00;99.90
22623;DHT22;11478;51.094;7.030;2022-08-01T15:59:32;24.10;99.90
22623;DHT22;11478;51.094;7.030;2022-08-01T16:23:55;23.60;99.90
22623;DHT22;11478;51.094;7.030;2022-08-01T16:26:46;23.60;99.90
22623;DHT22;11478;51.094;7.030;2022-08-01T16:29:12;23.60;99.90
22623;DHT22;11478;51.094;7.030;2022-08-01T16:31:42;23.60;99.90
22623;DHT22;11478;51.094;7.030;2022-08-01T16:34:08;23.60;99.90
22623;DHT22;11478;51.094;7.030;2022-08-01T16:41:47;23.50;99.90
22623;DHT22;11478;51.094;7.030;2022-08-01T16:44:15;23.50;99.90
22623;DHT22;11478;51.094;7.030;2022-08-01T16:47:10;23.50;99.90
22623;DHT22;11478;51.094;7.030;2022-08-01T16:49:36;23.30;99.90
22623;DHT22;11478;51.094;7.030;2022-08-01T16:55:59;23.30;99.90
22623;DHT22;11478;51.094;7.030;2022-08-01T16:58:27;23.20;99.90
22623;DHT22;11478;51.094;7.030;2022-08-01T17:03:57;23.30;99.90
22623;DHT22;11478;51.094;7.030;2022-08-01T17:06:29;23.60;99.90
22623;DHT22;11478;51.094;7.030;2022-08-01T17:08:55;23.80;99.90
22623;DHT22;11478;51.094;7.030;2022-08-01T17:14:46;24.10;99.90
22623;DHT22;11478;51.094;7.030;2022-08-01T17:17:16;24.30;99.90
22623;DHT22;11478;51.094;7.030;2022-08-01T17:19:42;24.50;99.90
22623;DHT22;11478;51.094;7.030;2022-08-01T17:38:28;24.50;99.90
22623;DHT22;11478;51.094;7.030;2022-08-01T17:40:57;24.20;99.90
22623;DHT22;11478;51.094;7.030;2022-08-01T17:43:25;23.90;99.90
22623;DHT22;11478;51.094;7.030;2022-08-01T17:45:51;23.60;99.90
22623;DHT22;11478;51.094;7.030;2022-08-01T17:51:40;23.40;99.90
22623;DHT22;11478;51.094;7.030;2022-08-01T17:57:08;23.20;99.90
22623;DHT22;11478;51.094;7.030;2022-08-01T17:59:54;23.00;99.90
22623;DHT22;11478;51.094;7.030;2022-08-01T18:13:52;22.40;99.90
22623;DHT22;11478;51.094;7.030;2022-08-01T18:16:21;22.20;99.90
22623;DHT22;11478;51.094;7.030;2022-08-01T20:49:07;16.60;99.90
